Time;durP1;ratioP1;P1;durP2;ratioP2;P2;SDS_P1;SDS_P2;PMS_P1;PMS_P2;Temp;Humidity;BMP_temperature;BMP_pressure;BME280_temperature;BME280_humidity;BME280_pressure;Samples;Min_cycle;Max_cycle;Signal;HPM_P1;HPM_P2
2022/05/02 00:02:26;;;;;;;9.63;5.88;;;;;;;;;;4936441;29;20040;-83
2022/05/02 00:04:52;;;;;;;8.65;5.80;;;;;;;;;;4937553;29;20039;-82
2022/05/02 00:07:18;;;;;;;8.65;5.47;;;;;;;;;;4936884;29;20040;-80
2022/05/02 00:09:44;;;;;;;7.75;5.43;;;;;;;;;;4936602;29;20485;-81
2022/05/02 00:12:11;;;;;;;12.25;5.78;;;;;;;;;;4938046;29;20054;-83
2022/05/02 00:14:37;;;;;;;8.27;5.47;;;;;;;;;;4936279;29;20385;-82
2022/05/02 00:17:03;;;;;;;7.40;5.38;;;;;;;;;;4937572;29;20027;-82
2022/05/02 00:19:29;;;;;;;8.40;5.63;;;;;;;;;;4936254;29;20054;-82
2022/05/02 00:21:55;;;;;;;7.75;5.35;;;;;;;;;;4936555;29;20046;-82
2022/05/02 00:24:22;;;;;;;7.85;5.90;;;;;;;;;;4936605;29;20031;-83
2022/05/02 00:26:48;;;;;;;9.85;6.15;;;;;;;;;;4936285;29;20485;-82
2022/05/02 00:29:14;;;;;;;9.05;6.30;;;;;;;;;;4936408;29;20024;-83
2022/05/02 00:31:40;;;;;;;10.20;6.25;;;;;;;;;;4936368;29;20027;-82
2022/05/02 00:34:07;;;;;;;8.85;5.95;;;;;;;;;;4936357;29;20421;-83
2022/05/02 00:36:33;;;;;;;8.73;6.20;;;;;;;;;;4936395;29;20038;-83
2022/05/02 00:38:59;;;;;;;8.70;6.00;;;;;;;;;;4936257;29;20031;-83
2022/05/02 00:41:26;;;;;;;9.45;5.93;;;;;;;;;;4936117;29;20400;-83
2022/05/02 00:43:52;;;;;;;9.88;6.28;;;;;;;;;;4935976;29;20200;-82
2022/05/02 00:46:18;;;;;;;8.88;5.85;;;;;;;;;;4937488;29;20463;-83
2022/05/02 00:48:45;;;;;;;9.07;6.30;;;;;;;;;;4937607;29;20054;-82
2022/05/02 00:51:11;;;;;;;10.15;6.57;;;;;;;;;;4935934;29;20031;-82
2022/05/02 00:53:39;;;;;;;10.45;7.28;;;;;;;;;;4937070;29;20036;-82
2022/05/02 00:56:06;;;;;;;8.32;5.68;;;;;;;;;;4936159;29;20035;-83
2022/05/02 00:58:35;;;;;;;12.07;5.97;;;;;;;;;;4935988;29;20058;-83
2022/05/02 01:01:01;;;;;;;10.85;6.15;;;;;;;;;;4935962;29;20038;-83
2022/05/02 01:03:27;;;;;;;10.20;6.82;;;;;;;;;;4935390;29;20071;-82
2022/05/02 01:08:39;;;;;;;11.45;6.55;;;;;;;;;;4937334;29;20060;-82
2022/05/02 01:11:05;;;;;;;10.93;7.15;;;;;;;;;;4935740;29;20473;-83
2022/05/02 01:13:36;;;;;;;10.85;7.15;;;;;;;;;;4935874;29;20042;-83
2022/05/02 01:16:15;;;;;;;14.90;7.75;;;;;;;;;;4935929;29;20036;-83
2022/05/02 01:18:42;;;;;;;11.43;7.25;;;;;;;;;;4935533;29;20032;-80
2022/05/02 01:21:09;;;;;;;11.32;8.18;;;;;;;;;;4935471;29;20048;-83
2022/05/02 01:23:36;;;;;;;11.38;7.45;;;;;;;;;;4935519;29;20027;-83
2022/05/02 01:26:02;;;;;;;11.80;7.47;;;;;;;;;;4935575;29;20032;-83
2022/05/02 01:28:28;;;;;;;16.27;8.38;;;;;;;;;;4937038;29;20480;-83
2022/05/02 01:30:55;;;;;;;15.75;8.48;;;;;;;;;;4935616;29;20034;-83
2022/05/02 01:33:21;;;;;;;10.63;7.28;;;;;;;;;;4939183;29;20463;-82
2022/05/02 01:35:48;;;;;;;13.68;8.23;;;;;;;;;;4936432;29;20032;-83
2022/05/02 01:38:14;;;;;;;14.68;8.10;;;;;;;;;;4935569;29;20445;-83
2022/05/02 01:40:40;;;;;;;13.85;9.50;;;;;;;;;;4935634;29;20027;-84
2022/05/02 01:43:06;;;;;;;12.30;8.40;;;;;;;;;;4935371;29;20481;-82
2022/05/02 01:45:32;;;;;;;14.07;9.15;;;;;;;;;;4936796;29;20508;-83
2022/05/02 01:47:59;;;;;;;12.85;8.60;;;;;;;;;;4935541;29;20063;-83
2022/05/02 01:50:25;;;;;;;11.38;8.00;;;;;;;;;;4935289;29;20031;-83
2022/05/02 01:52:51;;;;;;;13.63;8.07;;;;;;;;;;4935422;29;20067;-83
2022/05/02 01:55:20;;;;;;;15.15;8.20;;;;;;;;;;4935371;29;20036;-83
2022/05/02 01:57:47;;;;;;;12.10;8.65;;;;;;;;;;4935408;29;20028;-83
2022/05/02 02:00:13;;;;;;;11.90;8.55;;;;;;;;;;4935247;29;20078;-83
2022/05/02 02:02:40;;;;;;;13.35;8.80;;;;;;;;;;4935267;29;20122;-83
2022/05/02 02:07:51;;;;;;;11.25;7.50;;;;;;;;;;4936728;29;20508;-84
2022/05/02 02:10:17;;;;;;;10.68;7.28;;;;;;;;;;4935273;29;20516;-83
2022/05/02 02:12:43;;;;;;;12.52;7.13;;;;;;;;;;4936526;29;20100;-83
2022/05/02 02:15:14;;;;;;;11.05;7.70;;;;;;;;;;4940590;29;20050;-84
2022/05/02 02:17:41;;;;;;;10.52;7.22;;;;;;;;;;4938966;29;20030;-83
2022/05/02 02:20:07;;;;;;;12.48;7.85;;;;;;;;;;4938430;29;20091;-83
2022/05/02 02:22:34;;;;;;;10.15;7.32;;;;;;;;;;4938655;29;20098;-83
2022/05/02 02:25:00;;;;;;;12.57;8.38;;;;;;;;;;4938777;29;20024;-84
2022/05/02 02:27:26;;;;;;;11.65;7.95;;;;;;;;;;4938687;29;20035;-84
2022/05/02 02:29:52;;;;;;;12.52;7.95;;;;;;;;;;4940009;29;20024;-83
2022/05/02 02:32:18;;;;;;;13.25;9.60;;;;;;;;;;4938769;29;20393;-83
2022/05/02 02:34:44;;;;;;;14.10;8.43;;;;;;;;;;4938521;29;20035;-82
2022/05/02 02:37:11;;;;;;;12.77;7.95;;;;;;;;;;4938492;29;20027;-83
2022/05/02 02:39:37;;;;;;;11.85;8.15;;;;;;;;;;4938510;29;20024;-82
2022/05/02 02:42:03;;;;;;;12.77;7.95;;;;;;;;;;4939534;29;20047;-83
2022/05/02 02:44:29;;;;;;;13.65;8.27;;;;;;;;;;4938604;29;20038;-83
2022/05/02 02:46:55;;;;;;;10.77;7.00;;;;;;;;;;4938694;29;20028;-83
2022/05/02 02:49:21;;;;;;;13.60;8.32;;;;;;;;;;4938673;29;20047;-84
2022/05/02 02:51:48;;;;;;;10.48;7.18;;;;;;;;;;4940021;29;20036;-80
2022/05/02 02:54:14;;;;;;;10.13;7.07;;;;;;;;;;4938294;29;20028;-83
2022/05/02 02:56:40;;;;;;;14.65;7.60;;;;;;;;;;4939491;29;20043;-84
2022/05/02 02:59:06;;;;;;;12.75;8.65;;;;;;;;;;4945358;29;20051;-82
2022/05/02 03:01:32;;;;;;;11.35;7.28;;;;;;;;;;4941976;29;20138;-84
2022/05/02 03:03:59;;;;;;;12.52;7.70;;;;;;;;;;4938792;29;20031;-83
2022/05/02 03:06:25;;;;;;;11.88;8.30;;;;;;;;;;4939545;29;20027;-84
2022/05/02 03:08:51;;;;;;;13.38;8.10;;;;;;;;;;4939631;29;20042;-84
2022/05/02 03:11:17;;;;;;;12.80;8.10;;;;;;;;;;4938190;29;20087;-82
2022/05/02 03:13:43;;;;;;;15.18;8.32;;;;;;;;;;4938038;29;20039;-83
2022/05/02 03:16:10;;;;;;;12.38;7.78;;;;;;;;;;4938183;29;20112;-82
2022/05/02 03:18:37;;;;;;;11.15;7.57;;;;;;;;;;4939647;29;20461;-82
2022/05/02 03:21:03;;;;;;;13.27;7.15;;;;;;;;;;4938983;29;20405;-83
2022/05/02 03:23:29;;;;;;;10.48;7.60;;;;;;;;;;4922085;29;20032;-81
2022/05/02 03:25:57;;;;;;;11.95;6.90;;;;;;;;;;4938855;29;20055;-83
2022/05/02 03:28:24;;;;;;;10.65;6.85;;;;;;;;;;4922251;29;20031;-85
2022/05/02 03:30:50;;;;;;;10.88;7.70;;;;;;;;;;4921786;29;20028;-85
2022/05/02 03:33:16;;;;;;;11.30;6.65;;;;;;;;;;4921577;29;20028;-84
2022/05/02 03:35:42;;;;;;;10.75;7.20;;;;;;;;;;4921480;29;20035;-82
2022/05/02 03:38:08;;;;;;;10.23;6.72;;;;;;;;;;4939092;29;20473;-83
2022/05/02 03:40:34;;;;;;;11.07;7.22;;;;;;;;;;4938882;29;20020;-84
2022/05/02 03:43:01;;;;;;;9.95;6.22;;;;;;;;;;4923635;29;20071;-81
2022/05/02 03:45:27;;;;;;;11.13;7.97;;;;;;;;;;4921612;29;20469;-85
2022/05/02 03:47:53;;;;;;;9.82;6.50;;;;;;;;;;4921812;29;20086;-83
2022/05/02 03:50:19;;;;;;;11.32;7.53;;;;;;;;;;4921373;29;20465;-83
2022/05/02 03:52:45;;;;;;;10.48;6.43;;;;;;;;;;4921671;29;20024;-83
2022/05/02 03:55:12;;;;;;;8.73;6.10;;;;;;;;;;4921357;29;20067;-83
2022/05/02 03:57:38;;;;;;;13.27;6.95;;;;;;;;;;4921345;29;20452;-83
2022/05/02 04:00:04;;;;;;;11.65;7.28;;;;;;;;;;4938515;29;20548;-84
2022/05/02 04:02:30;;;;;;;11.48;6.93;;;;;;;;;;4921116;29;20528;-83
2022/05/02 04:04:57;;;;;;;9.63;6.05;;;;;;;;;;4921154;29;20028;-83
2022/05/02 04:07:23;;;;;;;12.27;6.82;;;;;;;;;;4921014;29;20035;-83
2022/05/02 04:09:49;;;;;;;14.40;6.28;;;;;;;;;;4937963;29;20103;-83
2022/05/02 04:12:15;;;;;;;15.60;6.65;;;;;;;;;;4938037;29;20087;-83
2022/05/02 04:14:41;;;;;;;10.82;6.07;;;;;;;;;;4920851;29;20055;-83
2022/05/02 04:17:09;;;;;;;10.73;5.82;;;;;;;;;;4920890;29;20038;-83
2022/05/02 04:19:35;;;;;;;16.95;6.10;;;;;;;;;;4923354;29;20044;-83
2022/05/02 04:22:01;;;;;;;10.23;6.32;;;;;;;;;;4936588;29;20043;-83
2022/05/02 04:24:28;;;;;;;12.82;6.30;;;;;;;;;;4938701;29;20110;-85
2022/05/02 04:26:56;;;;;;;10.10;6.63;;;;;;;;;;4944283;29;20035;-83
2022/05/02 04:29:26;;;;;;;10.88;7.18;;;;;;;;;;4936576;29;20155;-83
2022/05/02 04:31:52;;;;;;;13.40;6.40;;;;;;;;;;4936819;29;20063;-82
2022/05/02 04:34:18;;;;;;;18.95;6.60;;;;;;;;;;4935566;29;20033;-81
2022/05/02 04:36:44;;;;;;;12.18;6.72;;;;;;;;;;4944028;28;20031;-83
2022/05/02 04:39:10;;;;;;;9.10;6.43;;;;;;;;;;4936340;29;20032;-84
2022/05/02 04:41:36;;;;;;;11.88;6.32;;;;;;;;;;4936015;29;20086;-83
2022/05/02 04:44:02;;;;;;;10.30;6.75;;;;;;;;;;4931981;29;20160;-81
2022/05/02 04:46:28;;;;;;;11.30;6.18;;;;;;;;;;4932361;29;20103;-81
2022/05/02 04:48:55;;;;;;;8.95;6.68;;;;;;;;;;4928619;29;20422;-83
2022/05/02 04:51:21;;;;;;;7.53;5.88;;;;;;;;;;4920937;29;20024;-83
2022/05/02 04:53:47;;;;;;;12.48;6.80;;;;;;;;;;4916560;29;20028;-82
2022/05/02 04:56:13;;;;;;;11.35;5.63;;;;;;;;;;4916047;29;20036;-82
2022/05/02 04:58:39;;;;;;;9.85;5.35;;;;;;;;;;4916501;29;20032;-82
2022/05/02 05:01:06;;;;;;;9.60;5.00;;;;;;;;;;4916550;29;20135;-83
2022/05/02 05:03:32;;;;;;;9.27;4.22;;;;;;;;;;4917551;29;20051;-82
2022/05/02 05:05:59;;;;;;;8.57;3.83;;;;;;;;;;4930588;29;20465;-84
2022/05/02 05:08:25;;;;;;;5.35;2.85;;;;;;;;;;4932466;29;20466;-82
2022/05/02 05:11:04;;;;;;;12.80;3.20;;;;;;;;;;4935452;29;20028;-79
2022/05/02 05:13:38;;;;;;;6.40;3.33;;;;;;;;;;4932169;29;20028;-83
2022/05/02 05:16:31;;;;;;;11.10;3.50;;;;;;;;;;4916528;29;20119;-83
2022/05/02 05:18:58;;;;;;;8.93;3.33;;;;;;;;;;4915788;29;20055;-83
2022/05/02 05:21:27;;;;;;;5.75;3.03;;;;;;;;;;4902037;29;20039;-83
2022/05/02 05:24:09;;;;;;;6.00;3.03;;;;;;;;;;4935047;29;20091;-84
2022/05/02 05:26:51;;;;;;;10.40;3.20;;;;;;;;;;4935076;29;20477;-81
2022/05/02 05:29:37;;;;;;;5.25;2.63;;;;;;;;;;4934865;29;20027;-83
2022/05/02 05:32:03;;;;;;;6.32;3.10;;;;;;;;;;4907211;29;20046;-80
2022/05/02 05:34:41;;;;;;;8.43;3.00;;;;;;;;;;4936336;29;20400;-84
2022/05/02 05:37:10;;;;;;;7.25;3.28;;;;;;;;;;4935067;29;20032;-85
2022/05/02 05:39:45;;;;;;;10.20;3.13;;;;;;;;;;4934232;29;20060;-86
2022/05/02 05:42:22;;;;;;;11.57;3.53;;;;;;;;;;4919328;29;20161;-82
2022/05/02 05:45:03;;;;;;;7.32;3.47;;;;;;;;;;4918883;29;20054;-84
2022/05/02 05:47:42;;;;;;;8.90;3.55;;;;;;;;;;4935994;29;20040;-81
2022/05/02 05:50:17;;;;;;;7.78;3.22;;;;;;;;;;4921193;29;20031;-81
2022/05/02 05:53:02;;;;;;;11.38;3.90;;;;;;;;;;4939728;29;20032;-82
2022/05/02 05:55:56;;;;;;;10.68;3.42;;;;;;;;;;4922472;29;20075;-82
2022/05/02 05:58:34;;;;;;;7.45;3.33;;;;;;;;;;4921351;29;20024;-82
2022/05/02 06:01:10;;;;;;;9.88;3.67;;;;;;;;;;4926861;29;20036;-83
2022/05/02 06:03:42;;;;;;;8.93;3.65;;;;;;;;;;4939420;29;20071;-82
2022/05/02 06:06:09;;;;;;;5.05;2.80;;;;;;;;;;4938351;29;20032;-81
2022/05/02 06:08:36;;;;;;;7.97;3.05;;;;;;;;;;4923786;29;20114;-83
2022/05/02 06:11:02;;;;;;;5.28;3.20;;;;;;;;;;4938451;29;20027;-81
2022/05/02 06:13:30;;;;;;;4.47;2.97;;;;;;;;;;4938253;29;20404;-81
2022/05/02 06:18:43;;;;;;;5.30;3.42;;;;;;;;;;4939264;29;20051;-80
2022/05/02 06:21:09;;;;;;;5.28;3.00;;;;;;;;;;4938672;29;20119;-81
2022/05/02 06:23:43;;;;;;;6.20;3.20;;;;;;;;;;4922144;29;20507;-82
2022/05/02 06:26:10;;;;;;;4.95;2.95;;;;;;;;;;4939753;29;20392;-82
2022/05/02 06:28:43;;;;;;;6.32;3.10;;;;;;;;;;4939831;29;20027;-82
2022/05/02 06:31:14;;;;;;;5.13;2.70;;;;;;;;;;4939004;29;20023;-83
2022/05/02 06:33:42;;;;;;;6.03;3.20;;;;;;;;;;4921242;29;20091;-81
2022/05/02 06:36:16;;;;;;;5.68;3.88;;;;;;;;;;4910745;29;20781;-81
2022/05/02 06:38:52;;;;;;;4.60;3.35;;;;;;;;;;4932831;29;20485;-82
2022/05/02 06:41:30;;;;;;;6.85;2.53;;;;;;;;;;4902745;29;20044;-82
2022/05/02 06:43:56;;;;;;;4.35;2.95;;;;;;;;;;4905885;29;20082;-82
2022/05/02 06:46:28;;;;;;;6.22;2.85;;;;;;;;;;4915547;29;20039;-81
2022/05/02 06:48:54;;;;;;;;;;;;;;;;;;4923077;29;20020;-83
2022/05/02 06:51:28;;;;;;;4.85;2.75;;;;;;;;;;4903008;29;20384;-82
2022/05/02 06:54:13;;;;;;;4.07;2.70;;;;;;;;;;4902791;29;20032;-82
2022/05/02 06:56:44;;;;;;;4.68;2.65;;;;;;;;;;4902239;29;20115;-82
2022/05/02 06:59:23;;;;;;;5.15;2.30;;;;;;;;;;4902407;29;20091;-82
2022/05/02 07:01:56;;;;;;;6.38;2.97;;;;;;;;;;4919898;29;20052;-83
2022/05/02 07:04:26;;;;;;;3.80;2.55;;;;;;;;;;4902831;29;20028;-81
2022/05/02 07:07:10;;;;;;;5.30;2.72;;;;;;;;;;4919659;29;20054;-82
2022/05/02 07:09:46;;;;;;;4.63;2.63;;;;;;;;;;4919569;29;20393;-82
2022/05/02 07:12:17;;;;;;;4.60;2.67;;;;;;;;;;4920830;29;20051;-84
2022/05/02 07:15:02;;;;;;;5.95;3.00;;;;;;;;;;4921384;29;20034;-84
2022/05/02 07:17:32;;;;;;;3.95;2.60;;;;;;;;;;4921058;29;20031;-83
2022/05/02 07:20:09;;;;;;;5.55;3.10;;;;;;;;;;4920745;29;20054;-83
2022/05/02 07:22:37;;;;;;;7.22;3.08;;;;;;;;;;4920868;29;20134;-81
2022/05/02 07:25:13;;;;;;;4.18;2.72;;;;;;;;;;4920939;29;20020;-82
2022/05/02 07:27:40;;;;;;;4.25;2.47;;;;;;;;;;4937857;29;20064;-81
2022/05/02 07:30:06;;;;;;;5.40;2.90;;;;;;;;;;4920749;29;20031;-84
2022/05/02 07:32:33;;;;;;;5.22;2.88;;;;;;;;;;4920955;29;20039;-82
2022/05/02 07:34:59;;;;;;;3.72;2.85;;;;;;;;;;4920916;29;20441;-82
2022/05/02 07:37:26;;;;;;;4.68;2.97;;;;;;;;;;4921011;29;20059;-83
2022/05/02 07:39:52;;;;;;;6.15;2.97;;;;;;;;;;4920866;29;20031;-80
2022/05/02 07:42:24;;;;;;;7.70;3.10;;;;;;;;;;4937656;29;20031;-82
2022/05/02 07:44:52;;;;;;;8.45;2.90;;;;;;;;;;4920345;29;20035;-82
2022/05/02 07:47:19;;;;;;;5.50;3.08;;;;;;;;;;4920763;29;20503;-81
2022/05/02 07:49:49;;;;;;;4.00;2.67;;;;;;;;;;4920372;29;20023;-82
2022/05/02 07:52:17;;;;;;;6.13;3.05;;;;;;;;;;4920669;29;20035;-83
2022/05/02 07:54:45;;;;;;;6.55;3.30;;;;;;;;;;4920432;29;20385;-80
2022/05/02 07:57:12;;;;;;;4.45;2.90;;;;;;;;;;4920411;29;20556;-81
2022/05/02 07:59:40;;;;;;;6.03;3.38;;;;;;;;;;4920367;29;20063;-81
2022/05/02 08:02:06;;;;;;;7.00;3.85;;;;;;;;;;4920283;29;20040;-81
2022/05/02 08:04:33;;;;;;;4.90;2.97;;;;;;;;;;4920327;29;20370;-83
2022/05/02 08:07:11;;;;;;;7.75;2.85;;;;;;;;;;4920314;29;20031;-81
2022/05/02 08:09:37;;;;;;;5.15;2.88;;;;;;;;;;4919431;29;20417;-80
2022/05/02 08:12:04;;;;;;;7.15;3.28;;;;;;;;;;4919437;29;20031;-80
2022/05/02 08:14:40;;;;;;;6.43;3.17;;;;;;;;;;4920209;29;20031;-80
2022/05/02 08:17:26;;;;;;;5.28;3.28;;;;;;;;;;4920254;29;20024;-76
2022/05/02 08:20:00;;;;;;;6.55;3.42;;;;;;;;;;4924307;29;20047;-79
2022/05/02 08:28:17;;;;;;;4.28;3.15;;;;;;;;;;4936710;29;20448;-77
2022/05/02 08:30:51;;;;;;;5.32;3.08;;;;;;;;;;4935575;29;20393;-84
2022/05/02 08:33:20;;;;;;;5.05;3.50;;;;;;;;;;4936085;29;20024;-83
2022/05/02 08:35:49;;;;;;;8.75;2.75;;;;;;;;;;4936894;29;20354;-86
2022/05/02 08:38:29;;;;;;;4.32;2.35;;;;;;;;;;4935908;29;20027;-84
2022/05/02 08:41:07;;;;;;;6.18;3.00;;;;;;;;;;4937197;29;20035;-86
2022/05/02 08:43:42;;;;;;;5.03;3.00;;;;;;;;;;4935481;29;20023;-83
2022/05/02 08:46:30;;;;;;;7.03;2.92;;;;;;;;;;4935287;29;20355;-86
2022/05/02 08:49:32;;;;;;;7.85;3.65;;;;;;;;;;4935784;29;20078;-85
2022/05/02 08:52:05;;;;;;;5.25;3.40;;;;;;;;;;4935693;29;20032;-80
2022/05/02 08:54:34;;;;;;;9.38;3.28;;;;;;;;;;4953533;29;20437;-82
2022/05/02 08:57:12;;;;;;;7.35;3.13;;;;;;;;;;4935330;29;20043;-83
2022/05/02 08:59:58;;;;;;;4.20;3.00;;;;;;;;;;4935389;29;20039;-83
2022/05/02 09:02:42;;;;;;;6.38;3.17;;;;;;;;;;4936449;29;20035;-82
2022/05/02 09:05:18;;;;;;;4.82;2.70;;;;;;;;;;4935676;29;20028;-87
2022/05/02 09:08:10;;;;;;;6.15;2.92;;;;;;;;;;4936664;29;20028;-86
2022/05/02 09:10:55;;;;;;;12.23;3.15;;;;;;;;;;4914172;29;20042;-86
2022/05/02 09:13:42;;;;;;;6.35;3.30;;;;;;;;;;4934954;29;20108;-85
2022/05/02 09:16:26;;;;;;;5.30;2.83;;;;;;;;;;4906732;29;20123;-86
2022/05/02 09:19:25;;;;;;;3.75;2.63;;;;;;;;;;4934824;29;20122;-83
2022/05/02 09:22:21;;;;;;;7.10;2.60;;;;;;;;;;4903722;29;20492;-82
2022/05/02 09:24:50;;;;;;;5.15;2.78;;;;;;;;;;4934866;29;20055;-82
2022/05/02 09:27:37;;;;;;;6.13;2.78;;;;;;;;;;4934661;29;20163;-85
2022/05/02 09:30:14;;;;;;;4.00;2.80;;;;;;;;;;4935142;29;20105;-82
2022/05/02 09:32:43;;;;;;;3.72;2.20;;;;;;;;;;4934868;29;20086;-85
2022/05/02 09:35:12;;;;;;;5.38;2.50;;;;;;;;;;4934879;29;20040;-82
2022/05/02 09:37:39;;;;;;;3.20;2.30;;;;;;;;;;4935024;29;20118;-86
2022/05/02 09:40:14;;;;;;;3.38;2.35;;;;;;;;;;4921222;29;20028;-88
2022/05/02 09:42:58;;;;;;;4.78;2.20;;;;;;;;;;4917575;29;20481;-87
2022/05/02 09:51:23;;;;;;;4.30;2.17;;;;;;;;;;4917394;29;20066;-86
2022/05/02 09:54:06;;;;;;;4.22;2.42;;;;;;;;;;4917577;29;20032;-84
2022/05/02 09:56:41;;;;;;;5.05;1.92;;;;;;;;;;4931748;29;20062;-86
2022/05/02 09:59:28;;;;;;;4.07;1.80;;;;;;;;;;4941187;28;20035;-81
2022/05/02 10:02:10;;;;;;;6.15;2.20;;;;;;;;;;4934453;29;20815;-82
2022/05/02 10:04:36;;;;;;;4.45;2.50;;;;;;;;;;4934937;29;20031;-82
2022/05/02 10:07:06;;;;;;;4.35;2.50;;;;;;;;;;4934897;29;20082;-86
2022/05/02 10:09:36;;;;;;;3.95;2.08;;;;;;;;;;4931340;29;20185;-83
2022/05/02 10:12:08;;;;;;;5.05;2.10;;;;;;;;;;4915213;29;20026;-81
2022/05/02 10:14:53;;;;;;;7.18;2.17;;;;;;;;;;4927393;29;20063;-82
2022/05/02 10:17:25;;;;;;;3.45;1.90;;;;;;;;;;4930964;29;20040;-84
2022/05/02 10:19:54;;;;;;;3.75;2.00;;;;;;;;;;4919928;29;20051;-82
2022/05/02 10:22:31;;;;;;;5.82;2.03;;;;;;;;;;4918264;29;20036;-82
2022/05/02 10:25:02;;;;;;;4.88;2.15;;;;;;;;;;4917990;29;20067;-80
2022/05/02 10:27:31;;;;;;;2.13;1.60;;;;;;;;;;4935505;29;20026;-83
2022/05/02 10:30:04;;;;;;;3.17;2.00;;;;;;;;;;4918332;29;20036;-81
2022/05/02 10:32:33;;;;;;;3.20;1.95;;;;;;;;;;4917939;29;20111;-78
2022/05/02 10:35:03;;;;;;;4.10;2.28;;;;;;;;;;4919031;29;20031;-80
2022/05/02 10:37:32;;;;;;;5.97;2.45;;;;;;;;;;4938792;29;20103;-81
2022/05/02 10:40:08;;;;;;;3.92;2.00;;;;;;;;;;4921589;29;20229;-81
2022/05/02 10:42:35;;;;;;;3.20;1.98;;;;;;;;;;4921922;29;20083;-81
2022/05/02 10:45:09;;;;;;;4.30;2.35;;;;;;;;;;4921644;29;20366;-80
2022/05/02 10:48:00;;;;;;;3.13;1.92;;;;;;;;;;4921705;29;20388;-81
2022/05/02 10:50:34;;;;;;;5.57;2.10;;;;;;;;;;4938495;29;20107;-79
2022/05/02 10:53:12;;;;;;;5.90;1.95;;;;;;;;;;4918083;29;20021;-79
2022/05/02 10:55:39;;;;;;;4.38;1.80;;;;;;;;;;4902711;29;20576;-80
2022/05/02 10:58:06;;;;;;;4.65;1.83;;;;;;;;;;4919606;29;20020;-80
2022/05/02 11:00:33;;;;;;;3.28;1.90;;;;;;;;;;4914003;29;20055;-81
2022/05/02 11:03:11;;;;;;;6.18;2.25;;;;;;;;;;4938352;29;20039;-79
2022/05/02 11:05:57;;;;;;;5.60;1.60;;;;;;;;;;4938380;29;20085;-80
2022/05/02 11:08:46;;;;;;;4.70;1.80;;;;;;;;;;4921663;29;20385;-79
2022/05/02 11:11:19;;;;;;;7.57;1.90;;;;;;;;;;4937966;29;20050;-76
2022/05/02 11:13:48;;;;;;;3.42;1.90;;;;;;;;;;4938437;29;20525;-82
2022/05/02 11:16:27;;;;;;;4.00;1.85;;;;;;;;;;4934467;29;20031;-78
2022/05/02 11:22:13;;;;;;;4.65;2.33;;;;;;;;;;4919185;29;20156;-76
2022/05/02 11:24:50;;;;;;;3.05;1.95;;;;;;;;;;4918923;29;20107;-77
2022/05/02 11:27:26;;;;;;;3.13;2.03;;;;;;;;;;4917833;29;20043;-80
2022/05/02 11:30:02;;;;;;;4.40;2.47;;;;;;;;;;4918699;29;20016;-75
2022/05/02 11:32:28;;;;;;;4.93;2.30;;;;;;;;;;4902364;29;20083;-74
2022/05/02 11:35:04;;;;;;;4.07;2.35;;;;;;;;;;4918772;29;20028;-76
2022/05/02 11:37:31;;;;;;;4.00;2.42;;;;;;;;;;4908795;29;20457;-75
2022/05/02 11:39:58;;;;;;;3.33;2.17;;;;;;;;;;4918624;29;20549;-75
2022/05/02 11:42:28;;;;;;;6.88;2.13;;;;;;;;;;4918751;29;20040;-76
2022/05/02 11:44:54;;;;;;;4.00;2.05;;;;;;;;;;4918589;29;20510;-75
2022/05/02 11:47:38;;;;;;;3.03;2.08;;;;;;;;;;4918569;29;20031;-75
2022/05/02 11:50:10;;;;;;;3.53;1.90;;;;;;;;;;4918649;29;20036;-76
2022/05/02 11:52:39;;;;;;;5.20;2.50;;;;;;;;;;4918649;29;20420;-82
2022/05/02 11:55:06;;;;;;;7.25;2.03;;;;;;;;;;4901908;29;20544;-82
2022/05/02 11:57:41;;;;;;;6.43;2.30;;;;;;;;;;4918382;29;20115;-79
2022/05/02 12:00:09;;;;;;;9.55;2.47;;;;;;;;;;4901645;29;20111;-78
2022/05/02 12:02:38;;;;;;;3.42;2.20;;;;;;;;;;4918432;29;20040;-80
2022/05/02 12:05:05;;;;;;;4.95;2.30;;;;;;;;;;4901459;29;20024;-76
2022/05/02 12:07:32;;;;;;;4.00;2.08;;;;;;;;;;4918097;29;20040;-74
2022/05/02 12:10:01;;;;;;;3.35;2.03;;;;;;;;;;4918399;29;20032;-73
2022/05/02 12:12:28;;;;;;;6.78;2.70;;;;;;;;;;4918127;29;20039;-74
2022/05/02 12:15:12;;;;;;;5.80;2.35;;;;;;;;;;4917825;29;20024;-74
2022/05/02 12:18:01;;;;;;;5.38;2.42;;;;;;;;;;4900928;29;20040;-73
2022/05/02 12:20:31;;;;;;;5.65;2.45;;;;;;;;;;4927553;29;20767;-76
2022/05/02 12:23:03;;;;;;;7.65;2.50;;;;;;;;;;4919795;29;20043;-76
2022/05/02 12:25:32;;;;;;;3.30;2.03;;;;;;;;;;4919890;29;20385;-82
2022/05/02 12:28:02;;;;;;;3.13;1.85;;;;;;;;;;4920396;29;20031;-83
2022/05/02 12:30:28;;;;;;;5.28;1.98;;;;;;;;;;4934044;29;20032;-82
2022/05/02 12:32:59;;;;;;;4.22;2.15;;;;;;;;;;4899415;29;20087;-82
2022/05/02 12:35:27;;;;;;;3.53;2.22;;;;;;;;;;4917981;29;20034;-80
2022/05/02 12:37:53;;;;;;;7.90;2.20;;;;;;;;;;4913811;29;20393;-83
2022/05/02 12:40:23;;;;;;;5.05;2.20;;;;;;;;;;4892918;29;20032;-78
2022/05/02 12:42:50;;;;;;;3.90;2.67;;;;;;;;;;4914992;29;20048;-80
2022/05/02 12:45:19;;;;;;;6.20;2.70;;;;;;;;;;4900718;29;20080;-80
2022/05/02 12:47:45;;;;;;;3.85;2.40;;;;;;;;;;4904808;29;20066;-80
2022/05/02 12:50:11;;;;;;;3.83;2.10;;;;;;;;;;4919561;29;20028;-76
2022/05/02 12:52:43;;;;;;;7.43;2.53;;;;;;;;;;4908700;29;20442;-74
2022/05/02 12:55:09;;;;;;;3.80;2.67;;;;;;;;;;4916321;29;20040;-77
2022/05/02 13:00:30;;;;;;;3.65;2.38;;;;;;;;;;4917668;29;20047;-78
2022/05/02 13:02:58;;;;;;;6.13;2.33;;;;;;;;;;4900127;29;20047;-75
2022/05/02 13:05:24;;;;;;;8.23;1.77;;;;;;;;;;4909206;29;20118;-76
2022/05/02 13:07:54;;;;;;;4.38;2.30;;;;;;;;;;4901420;29;20028;-74
2022/05/02 13:10:30;;;;;;;8.23;2.25;;;;;;;;;;4902232;29;20036;-80
2022/05/02 13:13:01;;;;;;;3.42;1.73;;;;;;;;;;4900014;29;20024;-78
2022/05/02 13:15:28;;;;;;;3.80;2.03;;;;;;;;;;4899697;29;20098;-75
2022/05/02 13:17:58;;;;;;;3.95;2.00;;;;;;;;;;4917230;29;20060;-75
2022/05/02 13:20:29;;;;;;;4.00;1.70;;;;;;;;;;4920294;29;20060;-78
2022/05/02 13:23:03;;;;;;;5.30;2.15;;;;;;;;;;4931524;29;20071;-77
2022/05/02 13:25:48;;;;;;;3.78;1.95;;;;;;;;;;4915904;29;20122;-77
2022/05/02 13:28:19;;;;;;;5.93;2.00;;;;;;;;;;4925684;29;20027;-79
2022/05/02 13:30:47;;;;;;;4.55;1.98;;;;;;;;;;4934549;29;20099;-76
2022/05/02 13:33:14;;;;;;;5.05;1.77;;;;;;;;;;4935645;29;20085;-77
2022/05/02 13:35:41;;;;;;;2.85;2.03;;;;;;;;;;4934110;29;20401;-76
2022/05/02 13:38:11;;;;;;;3.00;1.75;;;;;;;;;;4934111;29;20035;-80
2022/05/02 13:40:56;;;;;;;4.03;1.90;;;;;;;;;;4932601;29;20031;-79
2022/05/02 13:43:23;;;;;;;4.57;2.28;;;;;;;;;;4934565;29;20107;-78
2022/05/02 13:45:54;;;;;;;5.40;2.05;;;;;;;;;;4934109;29;20028;-78
2022/05/02 13:48:32;;;;;;;4.78;2.10;;;;;;;;;;4934694;29;20027;-78
2022/05/02 13:50:58;;;;;;;3.65;1.80;;;;;;;;;;4934272;29;20373;-80
2022/05/02 13:53:27;;;;;;;2.40;1.48;;;;;;;;;;4934277;29;20031;-79
2022/05/02 13:56:07;;;;;;;3.83;1.90;;;;;;;;;;4934492;29;20070;-79
2022/05/02 13:58:45;;;;;;;4.30;2.38;;;;;;;;;;4934635;29;20035;-79
2022/05/02 14:01:27;;;;;;;4.22;2.03;;;;;;;;;;4934170;29;20055;-77
2022/05/02 14:04:12;;;;;;;3.88;1.60;;;;;;;;;;4934370;29;20038;-78
2022/05/02 14:06:56;;;;;;;3.67;1.75;;;;;;;;;;4933735;29;20039;-78
2022/05/02 14:09:40;;;;;;;4.07;1.90;;;;;;;;;;4934471;29;20028;-77
2022/05/02 14:12:27;;;;;;;3.83;1.85;;;;;;;;;;4939493;29;20028;-78
2022/05/02 14:14:57;;;;;;;5.53;2.17;;;;;;;;;;4932759;29;20122;-77
2022/05/02 14:17:31;;;;;;;3.38;1.50;;;;;;;;;;4938308;29;20083;-77
2022/05/02 14:20:13;;;;;;;3.75;1.77;;;;;;;;;;4932591;29;20114;-77
2022/05/02 14:22:40;;;;;;;2.97;1.80;;;;;;;;;;4922102;29;20099;-80
2022/05/02 14:25:08;;;;;;;3.90;1.95;;;;;;;;;;4939022;29;20062;-80
2022/05/02 14:27:34;;;;;;;13.52;3.85;;;;;;;;;;4939139;29;20396;-80
2022/05/02 14:30:03;;;;;;;5.70;2.72;;;;;;;;;;4921846;29;20488;-78
2022/05/02 14:32:44;;;;;;;3.15;1.90;;;;;;;;;;4939170;29;20048;-76
2022/05/02 14:35:21;;;;;;;3.42;1.90;;;;;;;;;;4938767;29;20028;-78
2022/05/02 14:37:47;;;;;;;2.95;1.65;;;;;;;;;;4921769;29;20055;-78
2022/05/02 14:40:13;;;;;;;5.70;2.33;;;;;;;;;;4921933;29;20034;-81
2022/05/02 14:42:40;;;;;;;3.83;2.00;;;;;;;;;;4919181;29;20087;-78
2022/05/02 14:45:07;;;;;;;3.88;2.55;;;;;;;;;;4918344;29;20477;-78
2022/05/02 14:47:33;;;;;;;5.38;2.10;;;;;;;;;;4920691;29;20039;-78
2022/05/02 14:49:59;;;;;;;3.15;1.70;;;;;;;;;;4921436;29;20024;-78
2022/05/02 14:52:28;;;;;;;2.70;1.50;;;;;;;;;;4938808;29;20031;-77
2022/05/02 14:54:56;;;;;;;5.07;1.80;;;;;;;;;;4938810;29;20119;-78
2022/05/02 14:57:23;;;;;;;6.53;1.73;;;;;;;;;;4921642;29;20496;-79
2022/05/02 14:59:51;;;;;;;4.28;2.08;;;;;;;;;;4936887;29;20470;-78
2022/05/02 15:02:20;;;;;;;5.82;1.73;;;;;;;;;;4937258;29;20392;-78
2022/05/02 15:04:46;;;;;;;4.10;1.65;;;;;;;;;;4938654;29;20504;-78
2022/05/02 15:07:15;;;;;;;2.45;1.75;;;;;;;;;;4927420;29;20477;-77
2022/05/02 15:12:38;;;;;;;12.57;5.20;;;;;;;;;;4938203;29;20042;-76
2022/05/02 15:15:23;;;;;;;5.00;1.95;;;;;;;;;;4937100;29;20046;-85
2022/05/02 15:18:09;;;;;;;4.35;1.65;;;;;;;;;;4921361;29;20032;-77
2022/05/02 15:20:42;;;;;;;3.10;1.75;;;;;;;;;;4930722;29;20497;-78
2022/05/02 15:23:11;;;;;;;2.90;1.52;;;;;;;;;;4936411;29;20051;-77
2022/05/02 15:25:49;;;;;;;6.05;1.80;;;;;;;;;;4938135;29;20020;-78
2022/05/02 15:36:46;;;;;;;7.63;2.15;;;;;;;;;;4938128;29;20082;-78
2022/05/02 15:39:12;;;;;;;3.67;1.83;;;;;;;;;;4938024;29;20474;-77
2022/05/02 15:41:41;;;;;;;4.40;1.98;;;;;;;;;;4938128;29;20067;-77